sensor_id;sensor_type;location;lat;lon;timestamp;pressure;altitude;pressure_sealevel;temperature;humidity
46456;BME280;64052;47.466;9.094;2023-04-16T00:03:15;95676.41;;;12.12;58.59
46456;BME280;64052;47.466;9.094;2023-04-16T00:08:17;95673.19;;;12.18;57.83
46456;BME280;64052;47.466;9.094;2023-04-16T00:13:18;95671.34;;;12.29;58.18
46456;BME280;64052;47.466;9.094;2023-04-16T00:18:20;95678.41;;;12.28;58.69
46456;BME280;64052;47.466;9.094;2023-04-16T00:23:21;95678.78;;;11.95;58.60
46456;BME280;64052;47.466;9.094;2023-04-16T00:28:23;95681.38;;;11.67;60.64
46456;BME280;64052;47.466;9.094;2023-04-16T00:33:24;95678.59;;;11.59;61.15
46456;BME280;64052;47.466;9.094;2023-04-16T00:38:26;95685.81;;;11.57;61.04
46456;BME280;64052;47.466;9.094;2023-04-16T00:43:27;95685.44;;;11.52;61.33
46456;BME280;64052;47.466;9.094;2023-04-16T00:48:29;95693.06;;;11.55;61.61
46456;BME280;64052;47.466;9.094;2023-04-16T00:53:31;95696.09;;;11.60;61.48
46456;BME280;64052;47.466;9.094;2023-04-16T00:58:33;95690.97;;;11.59;61.35
46456;BME280;64052;47.466;9.094;2023-04-16T01:03:44;95694.16;;;11.52;61.03
46456;BME280;64052;47.466;9.094;2023-04-16T01:08:46;95697.81;;;11.32;60.83
46456;BME280;64052;47.466;9.094;2023-04-16T01:13:47;95693.91;;;11.26;61.23
46456;BME280;64052;47.466;9.094;2023-04-16T01:18:50;95696.13;;;11.11;61.35
46456;BME280;64052;47.466;9.094;2023-04-16T01:23:51;95696.41;;;11.18;61.96
46456;BME280;64052;47.466;9.094;2023-04-16T01:28:53;95699.88;;;11.38;61.83
46456;BME280;64052;47.466;9.094;2023-04-16T01:33:54;95703.47;;;11.47;60.72
46456;BME280;64052;47.466;9.094;2023-04-16T01:38:56;95698.22;;;11.27;61.13
46456;BME280;64052;47.466;9.094;2023-04-16T01:43:57;95701.25;;;11.32;60.71
46456;BME280;64052;47.466;9.094;2023-04-16T01:49:00;95707.22;;;11.34;61.38
46456;BME280;64052;47.466;9.094;2023-04-16T01:54:02;95711.97;;;11.31;61.22
46456;BME280;64052;47.466;9.094;2023-04-16T01:59:04;95700.88;;;11.27;60.82
46456;BME280;64052;47.466;9.094;2023-04-16T02:04:10;95710.84;;;11.33;61.36
46456;BME280;64052;47.466;9.094;2023-04-16T02:09:13;95712.94;;;11.39;60.86
46456;BME280;64052;47.466;9.094;2023-04-16T02:14:14;95711.69;;;11.34;61.94
46456;BME280;64052;47.466;9.094;2023-04-16T02:19:16;95714.06;;;11.37;61.52
46456;BME280;64052;47.466;9.094;2023-04-16T02:24:19;95711.97;;;11.31;60.91
46456;BME280;64052;47.466;9.094;2023-04-16T02:29:21;95715.88;;;11.36;60.69
46456;BME280;64052;47.466;9.094;2023-04-16T02:34:43;95718.91;;;11.22;59.69
46456;BME280;64052;47.466;9.094;2023-04-16T02:39:46;95718.47;;;10.97;60.22
46456;BME280;64052;47.466;9.094;2023-04-16T02:44:48;95714.44;;;10.83;60.39
46456;BME280;64052;47.466;9.094;2023-04-16T02:49:49;95723.16;;;10.83;60.91
46456;BME280;64052;47.466;9.094;2023-04-16T02:54:51;95721.78;;;10.89;60.97
46456;BME280;64052;47.466;9.094;2023-04-16T02:59:52;95723.84;;;10.86;61.65
46456;BME280;64052;47.466;9.094;2023-04-16T03:04:54;95721.22;;;10.86;60.86
46456;BME280;64052;47.466;9.094;2023-04-16T03:09:55;95721.66;;;10.81;61.02
46456;BME280;64052;47.466;9.094;2023-04-16T03:14:57;95724.41;;;10.89;60.43
46456;BME280;64052;47.466;9.094;2023-04-16T03:19:58;95730.03;;;11.06;59.34
46456;BME280;64052;47.466;9.094;2023-04-16T03:25:00;95721.09;;;10.97;59.40
46456;BME280;64052;47.466;9.094;2023-04-16T03:30:01;95729.97;;;10.86;59.99
46456;BME280;64052;47.466;9.094;2023-04-16T03:35:05;95723.72;;;10.77;59.78
46456;BME280;64052;47.466;9.094;2023-04-16T03:40:07;95731.72;;;10.66;59.93
46456;BME280;64052;47.466;9.094;2023-04-16T03:45:09;95730.16;;;10.53;59.56
46456;BME280;64052;47.466;9.094;2023-04-16T03:50:12;95730.75;;;10.57;60.27
46456;BME280;64052;47.466;9.094;2023-04-16T03:55:15;95737.38;;;10.51;60.72
46456;BME280;64052;47.466;9.094;2023-04-16T04:00:16;95743.47;;;10.52;60.31
46456;BME280;64052;47.466;9.094;2023-04-16T04:05:35;95740.59;;;10.34;60.91
46456;BME280;64052;47.466;9.094;2023-04-16T04:10:37;95739.25;;;10.08;60.67
46456;BME280;64052;47.466;9.094;2023-04-16T04:15:40;95742.66;;;9.99;61.41
46456;BME280;64052;47.466;9.094;2023-04-16T04:20:43;95746.75;;;10.13;60.65
46456;BME280;64052;47.466;9.094;2023-04-16T04:25:48;95746.22;;;10.19;59.93
46456;BME280;64052;47.466;9.094;2023-04-16T04:30:50;95752.06;;;10.23;59.91
46456;BME280;64052;47.466;9.094;2023-04-16T04:35:53;95757.06;;;10.26;60.53
46456;BME280;64052;47.466;9.094;2023-04-16T04:40:55;95755.50;;;10.23;60.24
46456;BME280;64052;47.466;9.094;2023-04-16T04:45:59;95759.03;;;10.34;60.08
46456;BME280;64052;47.466;9.094;2023-04-16T04:51:02;95762.38;;;10.36;59.10
46456;BME280;64052;47.466;9.094;2023-04-16T04:56:06;95772.44;;;10.21;58.98
46456;BME280;64052;47.466;9.094;2023-04-16T05:01:13;95776.16;;;10.18;59.85
46456;BME280;64052;47.466;9.094;2023-04-16T05:06:15;95781.44;;;10.18;60.09
46456;BME280;64052;47.466;9.094;2023-04-16T05:11:17;95780.03;;;10.14;59.52
46456;BME280;64052;47.466;9.094;2023-04-16T05:16:18;95789.22;;;9.98;60.08
46456;BME280;64052;47.466;9.094;2023-04-16T05:21:20;95790.50;;;10.04;59.43
46456;BME280;64052;47.466;9.094;2023-04-16T05:26:21;95787.47;;;10.09;59.19
46456;BME280;64052;47.466;9.094;2023-04-16T05:31:23;95790.00;;;10.10;59.50
46456;BME280;64052;47.466;9.094;2023-04-16T05:36:24;95803.59;;;10.16;59.58
46456;BME280;64052;47.466;9.094;2023-04-16T05:41:26;95798.13;;;9.86;60.36
46456;BME280;64052;47.466;9.094;2023-04-16T05:46:27;95803.22;;;9.78;59.76
46456;BME280;64052;47.466;9.094;2023-04-16T05:51:29;95814.75;;;9.65;60.49
46456;BME280;64052;47.466;9.094;2023-04-16T05:56:30;95814.66;;;9.88;59.80
46456;BME280;64052;47.466;9.094;2023-04-16T06:01:32;95821.28;;;10.04;60.05
46456;BME280;64052;47.466;9.094;2023-04-16T06:06:34;95820.91;;;10.08;59.72
46456;BME280;64052;47.466;9.094;2023-04-16T06:11:36;95820.91;;;10.08;59.75
46456;BME280;64052;47.466;9.094;2023-04-16T06:16:37;95818.44;;;10.17;59.46
46456;BME280;64052;47.466;9.094;2023-04-16T06:21:39;95821.91;;;10.38;59.73
46456;BME280;64052;47.466;9.094;2023-04-16T06:26:41;95818.13;;;10.52;59.59
46456;BME280;64052;47.466;9.094;2023-04-16T06:31:42;95833.09;;;10.52;59.62
46456;BME280;64052;47.466;9.094;2023-04-16T06:36:44;95836.66;;;10.41;60.49
46456;BME280;64052;47.466;9.094;2023-04-16T06:41:48;95824.88;;;10.24;60.20
46456;BME280;64052;47.466;9.094;2023-04-16T06:46:51;95839.06;;;10.33;60.08
46456;BME280;64052;47.466;9.094;2023-04-16T06:51:53;95840.97;;;10.42;60.33
46456;BME280;64052;47.466;9.094;2023-04-16T06:56:54;95829.88;;;10.27;60.98
46456;BME280;64052;47.466;9.094;2023-04-16T07:01:56;95846.22;;;10.42;61.20
46456;BME280;64052;47.466;9.094;2023-04-16T07:06:58;95836.13;;;10.47;60.33
46456;BME280;64052;47.466;9.094;2023-04-16T07:11:59;95841.94;;;10.72;60.14
46456;BME280;64052;47.466;9.094;2023-04-16T07:17:01;95846.00;;;10.76;59.93
46456;BME280;64052;47.466;9.094;2023-04-16T07:22:02;95848.28;;;10.91;60.80
46456;BME280;64052;47.466;9.094;2023-04-16T07:27:04;95849.66;;;10.95;59.56
46456;BME280;64052;47.466;9.094;2023-04-16T07:32:07;95847.19;;;10.93;59.87
46456;BME280;64052;47.466;9.094;2023-04-16T07:37:09;95850.63;;;10.94;59.44
46456;BME280;64052;47.466;9.094;2023-04-16T07:42:11;95857.25;;;10.78;59.63
46456;BME280;64052;47.466;9.094;2023-04-16T07:47:12;95862.44;;;10.90;60.40
46456;BME280;64052;47.466;9.094;2023-04-16T07:52:14;95864.44;;;11.07;59.73
46456;BME280;64052;47.466;9.094;2023-04-16T07:57:15;95868.31;;;11.03;59.12
46456;BME280;64052;47.466;9.094;2023-04-16T08:02:17;95873.13;;;10.98;59.03
46456;BME280;64052;47.466;9.094;2023-04-16T08:07:19;95885.56;;;11.17;59.23
46456;BME280;64052;47.466;9.094;2023-04-16T08:12:20;95883.38;;;11.32;59.74
46456;BME280;64052;47.466;9.094;2023-04-16T08:17:22;95889.41;;;11.44;59.71
46456;BME280;64052;47.466;9.094;2023-04-16T08:22:23;95894.41;;;11.47;58.66
46456;BME280;64052;47.466;9.094;2023-04-16T08:27:25;95906.13;;;11.55;58.39
46456;BME280;64052;47.466;9.094;2023-04-16T08:32:26;95902.44;;;11.36;57.93
46456;BME280;64052;47.466;9.094;2023-04-16T08:37:28;95914.06;;;11.23;58.82
46456;BME280;64052;47.466;9.094;2023-04-16T08:42:32;95910.84;;;11.20;59.81
46456;BME280;64052;47.466;9.094;2023-04-16T08:47:35;95918.06;;;11.18;60.54
46456;BME280;64052;47.466;9.094;2023-04-16T08:52:42;95921.00;;;11.24;59.65
46456;BME280;64052;47.466;9.094;2023-04-16T08:57:57;95914.66;;;11.27;59.91
46456;BME280;64052;47.466;9.094;2023-04-16T09:02:58;95925.91;;;11.29;59.22
46456;BME280;64052;47.466;9.094;2023-04-16T09:08:00;95923.47;;;11.47;60.42
46456;BME280;64052;47.466;9.094;2023-04-16T09:13:02;95934.63;;;11.71;59.19
46456;BME280;64052;47.466;9.094;2023-04-16T09:18:04;95929.50;;;11.79;59.69
46456;BME280;64052;47.466;9.094;2023-04-16T09:23:05;95937.69;;;11.76;60.12
46456;BME280;64052;47.466;9.094;2023-04-16T09:28:08;95936.00;;;11.65;61.05
46456;BME280;64052;47.466;9.094;2023-04-16T09:33:16;95940.47;;;11.64;60.27
46456;BME280;64052;47.466;9.094;2023-04-16T09:38:19;95947.69;;;11.62;60.48
46456;BME280;64052;47.466;9.094;2023-04-16T09:43:21;95941.53;;;11.52;61.33
46456;BME280;64052;47.466;9.094;2023-04-16T09:48:32;95944.66;;;11.67;61.22
46456;BME280;64052;47.466;9.094;2023-04-16T09:53:34;95948.47;;;11.43;61.21
46456;BME280;64052;47.466;9.094;2023-04-16T09:58:36;95944.84;;;11.44;61.09
46456;BME280;64052;47.466;9.094;2023-04-16T10:03:39;95951.03;;;11.64;61.35
46456;BME280;64052;47.466;9.094;2023-04-16T10:08:51;95952.84;;;11.74;61.34
46456;BME280;64052;47.466;9.094;2023-04-16T10:13:52;95955.50;;;11.74;61.59
46456;BME280;64052;47.466;9.094;2023-04-16T10:18:55;95958.84;;;11.86;61.61
46456;BME280;64052;47.466;9.094;2023-04-16T10:23:56;95950.41;;;11.92;60.77
46456;BME280;64052;47.466;9.094;2023-04-16T10:28:58;95949.81;;;11.98;61.00
46456;BME280;64052;47.466;9.094;2023-04-16T10:34:01;95955.72;;;12.12;60.06
46456;BME280;64052;47.466;9.094;2023-04-16T10:39:03;95955.81;;;11.90;61.31
46456;BME280;64052;47.466;9.094;2023-04-16T10:44:08;95949.81;;;11.88;61.25
46456;BME280;64052;47.466;9.094;2023-04-16T10:49:22;95949.25;;;11.94;61.93
46456;BME280;64052;47.466;9.094;2023-04-16T10:54:31;95953.72;;;11.94;62.14
46456;BME280;64052;47.466;9.094;2023-04-16T10:59:35;95951.38;;;12.01;62.63
46456;BME280;64052;47.466;9.094;2023-04-16T11:04:39;95958.34;;;12.02;62.83
46456;BME280;64052;47.466;9.094;2023-04-16T11:09:56;95949.72;;;12.09;62.22
46456;BME280;64052;47.466;9.094;2023-04-16T11:20:05;95957.19;;;11.94;61.48
46456;BME280;64052;47.466;9.094;2023-04-16T11:25:21;95952.19;;;11.81;61.46
46456;BME280;64052;47.466;9.094;2023-04-16T11:30:33;95956.03;;;11.77;62.09
46456;BME280;64052;47.466;9.094;2023-04-16T11:35:35;95959.72;;;11.96;63.13
46456;BME280;64052;47.466;9.094;2023-04-16T11:40:36;95960.53;;;11.97;62.76
46456;BME280;64052;47.466;9.094;2023-04-16T11:45:38;95960.81;;;11.93;61.05
46456;BME280;64052;47.466;9.094;2023-04-16T11:50:39;95956.22;;;11.95;61.82
46456;BME280;64052;47.466;9.094;2023-04-16T11:55:44;95961.94;;;12.01;62.32
46456;BME280;64052;47.466;9.094;2023-04-16T12:00:45;95953.91;;;12.12;62.40
46456;BME280;64052;47.466;9.094;2023-04-16T12:05:47;95956.16;;;12.17;61.41
46456;BME280;64052;47.466;9.094;2023-04-16T12:10:54;95958.19;;;12.03;60.48
46456;BME280;64052;47.466;9.094;2023-04-16T12:15:56;95952.75;;;11.95;61.43
46456;BME280;64052;47.466;9.094;2023-04-16T12:20:57;95952.00;;;11.73;62.09
46456;BME280;64052;47.466;9.094;2023-04-16T12:26:06;95956.50;;;11.83;63.29
46456;BME280;64052;47.466;9.094;2023-04-16T12:31:08;95966.38;;;11.90;63.40
46456;BME280;64052;47.466;9.094;2023-04-16T12:36:16;95969.28;;;11.87;62.90
46456;BME280;64052;47.466;9.094;2023-04-16T12:41:18;95965.28;;;11.93;64.20
46456;BME280;64052;47.466;9.094;2023-04-16T12:46:19;95972.34;;;11.92;62.93
46456;BME280;64052;47.466;9.094;2023-04-16T12:51:21;95965.81;;;11.87;62.55
46456;BME280;64052;47.466;9.094;2023-04-16T12:56:23;95964.97;;;11.86;62.98
46456;BME280;64052;47.466;9.094;2023-04-16T13:01:24;95976.38;;;11.87;62.28
46456;BME280;64052;47.466;9.094;2023-04-16T13:06:26;95966.97;;;12.04;61.74
46456;BME280;64052;47.466;9.094;2023-04-16T13:11:27;95966.72;;;12.27;62.77
46456;BME280;64052;47.466;9.094;2023-04-16T13:16:29;95966.31;;;12.41;61.01
46456;BME280;64052;47.466;9.094;2023-04-16T13:21:32;95960.31;;;12.49;60.96
46456;BME280;64052;47.466;9.094;2023-04-16T13:26:34;95964.88;;;12.76;61.69
46456;BME280;64052;47.466;9.094;2023-04-16T13:31:36;95967.25;;;12.79;59.75
46456;BME280;64052;47.466;9.094;2023-04-16T13:36:38;95972.00;;;12.66;59.67
46456;BME280;64052;47.466;9.094;2023-04-16T13:41:40;95971.03;;;12.47;60.35
46456;BME280;64052;47.466;9.094;2023-04-16T13:46:41;95966.16;;;12.43;60.82
46456;BME280;64052;47.466;9.094;2023-04-16T13:51:43;95963.66;;;12.41;60.50
46456;BME280;64052;47.466;9.094;2023-04-16T13:56:45;95972.84;;;12.37;60.65
46456;BME280;64052;47.466;9.094;2023-04-16T14:01:46;95965.75;;;12.37;60.93
46456;BME280;64052;47.466;9.094;2023-04-16T14:06:48;95963.91;;;12.28;60.58
46456;BME280;64052;47.466;9.094;2023-04-16T14:11:50;95967.13;;;12.22;61.37
46456;BME280;64052;47.466;9.094;2023-04-16T14:16:53;95968.38;;;12.28;62.49
46456;BME280;64052;47.466;9.094;2023-04-16T14:21:55;95967.53;;;12.27;62.15
46456;BME280;64052;47.466;9.094;2023-04-16T14:26:56;95959.88;;;12.34;62.60
46456;BME280;64052;47.466;9.094;2023-04-16T14:31:57;95968.53;;;12.36;62.58
46456;BME280;64052;47.466;9.094;2023-04-16T14:36:59;95966.16;;;12.33;62.51
46456;BME280;64052;47.466;9.094;2023-04-16T14:42:01;95967.81;;;12.34;62.61
46456;BME280;64052;47.466;9.094;2023-04-16T14:47:02;95964.06;;;12.27;62.14
46456;BME280;64052;47.466;9.094;2023-04-16T14:52:04;95967.13;;;12.32;62.14
46456;BME280;64052;47.466;9.094;2023-04-16T14:57:05;95976.19;;;12.39;61.67
46456;BME280;64052;47.466;9.094;2023-04-16T15:02:07;95972.41;;;12.32;60.30
46456;BME280;64052;47.466;9.094;2023-04-16T15:07:09;95981.31;;;12.31;61.65
46456;BME280;64052;47.466;9.094;2023-04-16T15:12:11;95983.72;;;12.44;62.57
46456;BME280;64052;47.466;9.094;2023-04-16T15:17:12;95980.66;;;12.48;61.78
46456;BME280;64052;47.466;9.094;2023-04-16T15:22:13;95987.59;;;12.59;61.96
46456;BME280;64052;47.466;9.094;2023-04-16T15:27:16;95990.78;;;12.73;61.15
46456;BME280;64052;47.466;9.094;2023-04-16T15:32:18;95987.31;;;12.62;61.67
46456;BME280;64052;47.466;9.094;2023-04-16T15:37:19;95992.59;;;12.62;61.99
46456;BME280;64052;47.466;9.094;2023-04-16T15:42:22;95996.63;;;12.57;61.61
46456;BME280;64052;47.466;9.094;2023-04-16T15:47:24;95989.38;;;12.59;62.09
46456;BME280;64052;47.466;9.094;2023-04-16T15:52:25;95998.44;;;12.66;62.23
46456;BME280;64052;47.466;9.094;2023-04-16T15:57:27;96001.50;;;12.61;62.26
46456;BME280;64052;47.466;9.094;2023-04-16T16:02:28;95997.50;;;12.47;61.99
46456;BME280;64052;47.466;9.094;2023-04-16T16:07:30;96004.28;;;12.40;62.73
46456;BME280;64052;47.466;9.094;2023-04-16T16:12:32;96010.00;;;12.35;62.91
46456;BME280;64052;47.466;9.094;2023-04-16T16:17:33;96012.63;;;12.35;62.42
46456;BME280;64052;47.466;9.094;2023-04-16T16:22:36;96014.03;;;12.30;63.01
46456;BME280;64052;47.466;9.094;2023-04-16T16:27:37;96010.56;;;12.39;63.30
46456;BME280;64052;47.466;9.094;2023-04-16T16:32:39;96009.72;;;12.29;63.17
46456;BME280;64052;47.466;9.094;2023-04-16T16:37:40;96010.41;;;12.31;63.51
46456;BME280;64052;47.466;9.094;2023-04-16T16:42:42;96017.09;;;12.35;63.34
46456;BME280;64052;47.466;9.094;2023-04-16T16:47:43;96020.69;;;12.34;63.52
46456;BME280;64052;47.466;9.094;2023-04-16T16:52:45;96021.69;;;12.43;63.86
46456;BME280;64052;47.466;9.094;2023-04-16T16:57:46;96029.88;;;12.40;62.84
46456;BME280;64052;47.466;9.094;2023-04-16T17:02:47;96031.84;;;12.37;62.70
46456;BME280;64052;47.466;9.094;2023-04-16T17:07:49;96024.34;;;12.43;62.48
46456;BME280;64052;47.466;9.094;2023-04-16T17:12:50;96028.78;;;12.32;63.35
46456;BME280;64052;47.466;9.094;2023-04-16T17:17:52;96036.31;;;12.37;62.91
46456;BME280;64052;47.466;9.094;2023-04-16T17:22:54;96034.63;;;12.36;63.47
46456;BME280;64052;47.466;9.094;2023-04-16T17:27:55;96035.03;;;12.31;63.59
46456;BME280;64052;47.466;9.094;2023-04-16T17:32:57;96043.78;;;12.32;64.33
46456;BME280;64052;47.466;9.094;2023-04-16T17:37:58;96039.94;;;12.36;63.63
46456;BME280;64052;47.466;9.094;2023-04-16T17:43:00;96040.47;;;12.30;64.21
46456;BME280;64052;47.466;9.094;2023-04-16T17:48:01;96037.66;;;12.21;64.02
46456;BME280;64052;47.466;9.094;2023-04-16T17:53:03;96039.59;;;12.19;64.01
46456;BME280;64052;47.466;9.094;2023-04-16T17:58:04;96037.94;;;12.18;64.81
46456;BME280;64052;47.466;9.094;2023-04-16T18:03:06;96049.59;;;12.06;64.47
46456;BME280;64052;47.466;9.094;2023-04-16T18:08:08;96045.00;;;12.08;64.04
46456;BME280;64052;47.466;9.094;2023-04-16T18:13:09;96055.31;;;12.11;64.25
46456;BME280;64052;47.466;9.094;2023-04-16T18:18:11;96049.06;;;12.12;63.88
46456;BME280;64052;47.466;9.094;2023-04-16T18:23:12;96050.63;;;11.93;64.88
46456;BME280;64052;47.466;9.094;2023-04-16T18:28:14;96053.34;;;12.03;64.45
46456;BME280;64052;47.466;9.094;2023-04-16T18:33:15;96051.78;;;12.01;64.48
46456;BME280;64052;47.466;9.094;2023-04-16T18:38:20;96057.88;;;11.91;64.86
46456;BME280;64052;47.466;9.094;2023-04-16T18:43:21;96062.88;;;11.94;64.75
46456;BME280;64052;47.466;9.094;2023-04-16T18:48:23;96066.41;;;12.05;64.97
46456;BME280;64052;47.466;9.094;2023-04-16T18:53:24;96069.50;;;12.10;64.49
46456;BME280;64052;47.466;9.094;2023-04-16T18:58:26;96066.31;;;12.16;64.43
46456;BME280;64052;47.466;9.094;2023-04-16T19:03:27;96069.50;;;12.10;64.00
46456;BME280;64052;47.466;9.094;2023-04-16T19:08:29;96077.97;;;12.04;64.04
46456;BME280;64052;47.466;9.094;2023-04-16T19:13:31;96079.78;;;11.82;65.26
46456;BME280;64052;47.466;9.094;2023-04-16T19:18:32;96077.56;;;11.77;64.88
46456;BME280;64052;47.466;9.094;2023-04-16T19:23:33;96071.97;;;11.71;64.98
46456;BME280;64052;47.466;9.094;2023-04-16T19:28:35;96084.47;;;11.69;65.73
46456;BME280;64052;47.466;9.094;2023-04-16T19:33:37;96080.50;;;11.53;66.29
46456;BME280;64052;47.466;9.094;2023-04-16T19:38:38;96082.63;;;11.59;65.96
46456;BME280;64052;47.466;9.094;2023-04-16T19:43:40;96080.25;;;11.56;65.85
46456;BME280;64052;47.466;9.094;2023-04-16T19:48:41;96088.94;;;11.68;65.53
46456;BME280;64052;47.466;9.094;2023-04-16T19:53:43;96090.91;;;11.76;65.27
46456;BME280;64052;47.466;9.094;2023-04-16T19:58:44;96083.22;;;11.73;64.82
46456;BME280;64052;47.466;9.094;2023-04-16T20:03:45;96086.41;;;11.66;64.43
46456;BME280;64052;47.466;9.094;2023-04-16T20:08:47;96092.69;;;11.44;65.19
46456;BME280;64052;47.466;9.094;2023-04-16T20:13:48;96086.13;;;11.38;65.66
46456;BME280;64052;47.466;9.094;2023-04-16T20:18:50;96080.47;;;11.43;65.34
46456;BME280;64052;47.466;9.094;2023-04-16T20:23:51;96078.34;;;11.37;65.15
46456;BME280;64052;47.466;9.094;2023-04-16T20:28:53;96084.06;;;11.21;64.88
46456;BME280;64052;47.466;9.094;2023-04-16T20:33:55;96079.38;;;11.03;65.55
46456;BME280;64052;47.466;9.094;2023-04-16T20:38:56;96079.50;;;11.02;65.50
46456;BME280;64052;47.466;9.094;2023-04-16T20:43:58;96079.22;;;11.05;66.05
46456;BME280;64052;47.466;9.094;2023-04-16T20:48:59;96068.81;;;11.03;65.65
46456;BME280;64052;47.466;9.094;2023-04-16T20:54:01;96068.56;;;11.06;65.92
46456;BME280;64052;47.466;9.094;2023-04-16T20:59:02;96064.69;;;11.10;66.06
46456;BME280;64052;47.466;9.094;2023-04-16T21:04:04;96055.84;;;11.12;65.61
46456;BME280;64052;47.466;9.094;2023-04-16T21:09:05;96054.28;;;11.09;65.64
46456;BME280;64052;47.466;9.094;2023-04-16T21:14:07;96059.41;;;11.10;65.31
46456;BME280;64052;47.466;9.094;2023-04-16T21:19:08;96058.13;;;11.05;64.93
46456;BME280;64052;47.466;9.094;2023-04-16T21:24:10;96049.97;;;11.08;65.19
46456;BME280;64052;47.466;9.094;2023-04-16T21:29:12;96041.66;;;10.91;65.39
46456;BME280;64052;47.466;9.094;2023-04-16T21:34:14;96043.78;;;10.98;65.25
46456;BME280;64052;47.466;9.094;2023-04-16T21:39:15;96036.47;;;11.01;64.87
46456;BME280;64052;47.466;9.094;2023-04-16T21:44:17;96043.25;;;11.04;65.06
46456;BME280;64052;47.466;9.094;2023-04-16T21:49:18;96039.41;;;11.08;64.60
46456;BME280;64052;47.466;9.094;2023-04-16T21:54:20;96036.91;;;11.06;63.91
46456;BME280;64052;47.466;9.094;2023-04-16T21:59:21;96038.19;;;11.12;64.56
46456;BME280;64052;47.466;9.094;2023-04-16T22:04:23;96039.41;;;11.29;64.26
46456;BME280;64052;47.466;9.094;2023-04-16T22:09:24;96035.91;;;11.29;63.08
46456;BME280;64052;47.466;9.094;2023-04-16T22:14:26;96039.44;;;11.39;63.22
46456;BME280;64052;47.466;9.094;2023-04-16T22:19:28;96036.22;;;11.35;63.73
46456;BME280;64052;47.466;9.094;2023-04-16T22:24:29;96033.41;;;11.27;63.19
46456;BME280;64052;47.466;9.094;2023-04-16T22:29:31;96026.34;;;11.06;62.97
46456;BME280;64052;47.466;9.094;2023-04-16T22:34:32;96019.84;;;11.10;63.78
46456;BME280;64052;47.466;9.094;2023-04-16T22:39:34;96016.88;;;11.25;63.25
46456;BME280;64052;47.466;9.094;2023-04-16T22:44:35;96020.09;;;11.07;63.24
46456;BME280;64052;47.466;9.094;2023-04-16T22:49:37;96018.00;;;11.01;63.66
46456;BME280;64052;47.466;9.094;2023-04-16T22:54:38;96016.63;;;10.86;63.96
46456;BME280;64052;47.466;9.094;2023-04-16T22:59:40;96011.88;;;10.79;64.20
46456;BME280;64052;47.466;9.094;2023-04-16T23:04:41;96012.84;;;10.78;64.43
46456;BME280;64052;47.466;9.094;2023-04-16T23:09:43;96006.81;;;10.88;64.23
46456;BME280;64052;47.466;9.094;2023-04-16T23:14:44;96001.44;;;10.78;64.00
46456;BME280;64052;47.466;9.094;2023-04-16T23:19:46;95992.78;;;10.66;64.54
46456;BME280;64052;47.466;9.094;2023-04-16T23:24:47;95995.78;;;10.61;64.12
46456;BME280;64052;47.466;9.094;2023-04-16T23:29:49;95991.84;;;10.23;64.34
46456;BME280;64052;47.466;9.094;2023-04-16T23:34:50;95981.31;;;10.23;65.15
46456;BME280;64052;47.466;9.094;2023-04-16T23:39:52;95990.47;;;10.40;65.05
46456;BME280;64052;47.466;9.094;2023-04-16T23:44:53;95976.22;;;10.43;64.27
46456;BME280;64052;47.466;9.094;2023-04-16T23:49:55;95972.69;;;10.21;64.74
46456;BME280;64052;47.466;9.094;2023-04-16T23:54:56;95975.56;;;10.18;64.77
46456;BME280;64052;47.466;9.094;2023-04-16T23:59:57;95974.41;;;10.43;64.67
